Three Forks, MT

8:37 AM MST on February 14, 2016 (GMT -0700)
Three Forks High School | | Change Station
CLOSE
Current Station
Personal Weather Station
Location: Three Forks, MT
Elevation: 4075 ft
Nearby Weather Stations

Elev 4075 ft 45.90 °N, 111.55 °W | Updated 1 minute ago

Partly Cloudy
Partly Cloudy
42.2 °F
Feels Like 40 °F
N
4.0
Wind Variable Wind from ENE

Today
High -- | Low -- °F
--% Chance of Precip.
Yesterday
High -- | Low -- °F
Precip. -- in
Pressure 29.99 in
Visibility 10.0 miles
Clouds Clear
Windchill 40 °F
Dew Point 28 °F
Humidity 56%
Rainfall 0.00 in
Snow Depth Not available.
7:30 AM 5:49 PM
Waxing Crescent, 42% visible
METAR KBZN 141456Z 27013KT 10SM CLR 03/M04 A2993 RMK AO2 SLP155 T00331039 51003
Pressure 29.99 in
Visibility 10.0 miles
Clouds Clear
Windchill 40 °F
Dew Point 28 °F
Humidity 56%
Rainfall 0.00 in
Snow Depth Not available.
7:30 AM 5:49 PM
Waxing Crescent, 42% visible
METAR KBZN 141456Z 27013KT 10SM CLR 03/M04 A2993 RMK AO2 SLP155 T00331039 51003

10-Day Weather Forecast

Almanac

Astronomy

Feb. 14, 2016 Rise Set
Actual Time
Civil Twilight
Nautical Twilight
Astronomical Twilight
Moon
Length of Visible Light
Length of Day
Tomorrow will be .
, % of the Moon is Illuminated

Today's Extremes

State Highs State Lows

Community

WunderPhotos

Upload Photos

1,892,795 photos uploaded!

WunderBlog® & News

Nearby

Air Quality

  Air Quality AQ Index Pollutant
Not available.

Snow Depth

Station Depth Elevation

Earthquake Activity

City Distance Mag. Time & Date
Minimum magnitude displayed is 2.5.

Coastal Water Temperatures

Place Temperature

Stations

Nearby Weather Stations

Station Location Temp. Windchill Dew Point Humidity Wind Precip. Elev Updated Type
                   

Watches & Warnings

There are currently no watches in effect.